Kezdőlap
METAR-TAF:

METAR-TAF

Repülőterek :

Zeltwegi katonai repülőtér

Zeltweg, Ausztria

földrajzi szélesség: 47-12N, földrajzi hosszúság: 014-45E, magasság: 677 m

Jelenlegi meteorológiai megfigyelések

A jelentés 3 órával és 43 perccel ezelõtt készült, 20:50 UTC
Különbözõ irányokból fújó szél 1 kt
Hőmérséklet 1°C
Páratartalom 100%
Légköri nyomás 1030 hPa
Látótávolság: 8000 m

METAR: LOXZ 142050Z VRB01KT 8000 SCT020SC SCT300CI 01/01 Q1030

Idő: 01:33 (00:33 UTC)

Előrejelzés

A jelentés 13 órával és 18 perccel ezelõtt készült, 11:15 UTC
Az előrejelzés 14-én 12 óra UTC és 14-én 21 óra UTC között érvényes
Különbözõ irányokból fújó szél 3 kt
Látótávolság 10 km, vagy több
Kevés felhő 5000 lábon

TAF: LOXZ 141115Z 1412/1421 VRB03KT 9999 FEW050

Meteorológiai megfigyelések és előrejelzések több, mint 4000 repülőtéren (METAR és TAF jelentéseket).

A térképen piros és sárga pontok jelzik az elérhető meteorológiai állomásokat.

Mozgassa az egeret a pont fölött, hogy megjelenjen az állomás neve.

Azután kattintson az időjárási megfigyelések és előrejelzések megtekintéséhez.

A térkép megváltoztatása: kattintson a fekete keresztel jelölt zöld gombra ráközelítéshez, a vonallal jelölt zöld gombra távolításhoz, vagy a zöld nyilakra a szomszédos térképek eléréséhez.


METAR-TAF: